ZKMAN SLVR-SLLP
Flight info
| Callsign | ZKMAN |
|---|---|
| Flight time | 1h 16m |
| Altitude | 24000 |
| Route | SANSO UM793 DAKOG |
| Aircraft | DH8D/M-SDE2E3FGRY/H |
Departure
| Time | 2026-04-25 07:55 |
|---|---|
| Airport | Viru Viru International Airport (SLVR) |
Arrival
| Time | 2026-04-25 09:12 |
|---|---|
| Airport | El Alto International Airport (SLLP) |
| Time | Latitude | Longitude | Altitude | Speed | Heading |
|---|---|---|---|---|---|
| 2026-04-25 07:30 | -17.64672 | -63.13995 | 1232 ft | 0 kts | 237° |
| 2026-04-25 07:45 | -17.64669 | -63.13990 | 1232 ft | 3 kts | 237° |
| 2026-04-25 07:45 | -17.64658 | -63.13972 | 1232 ft | 3 kts | 237° |
| 2026-04-25 07:45 | -17.64647 | -63.13953 | 1232 ft | 3 kts | 238° |
| 2026-04-25 07:46 | -17.64641 | -63.13937 | 1232 ft | 3 kts | 284° |
| 2026-04-25 07:46 | -17.64648 | -63.13922 | 1232 ft | 2 kts | 302° |
| 2026-04-25 07:49 | -17.64637 | -63.13936 | 1232 ft | 5 kts | 313° |
| 2026-04-25 07:49 | -17.64597 | -63.13967 | 1232 ft | 10 kts | 327° |
| 2026-04-25 07:49 | -17.64519 | -63.13983 | 1232 ft | 14 kts | 18° |
| 2026-04-25 07:50 | -17.64438 | -63.13912 | 1232 ft | 18 kts | 56° |
| 2026-04-25 07:50 | -17.64375 | -63.13838 | 1232 ft | 9 kts | 6° |
| 2026-04-25 07:50 | -17.64306 | -63.13872 | 1232 ft | 14 kts | 327° |
| 2026-04-25 07:50 | -17.64223 | -63.13927 | 1232 ft | 14 kts | 328° |
| 2026-04-25 07:51 | -17.64143 | -63.13981 | 1232 ft | 14 kts | 327° |
| 2026-04-25 07:51 | -17.64061 | -63.14036 | 1232 ft | 13 kts | 328° |
| 2026-04-25 07:51 | -17.63989 | -63.14081 | 1232 ft | 11 kts | 349° |
| 2026-04-25 07:51 | -17.63928 | -63.14017 | 1232 ft | 15 kts | 56° |
| 2026-04-25 07:52 | -17.63861 | -63.13955 | 1232 ft | 14 kts | 347° |
| 2026-04-25 07:52 | -17.63766 | -63.14017 | 1232 ft | 21 kts | 326° |
| 2026-04-25 07:52 | -17.63631 | -63.14106 | 1232 ft | 26 kts | 328° |
| 2026-04-25 07:52 | -17.63472 | -63.14212 | 1232 ft | 29 kts | 327° |
| 2026-04-25 07:53 | -17.63299 | -63.14327 | 1232 ft | 31 kts | 327° |
| 2026-04-25 07:53 | -17.63193 | -63.14426 | 1232 ft | 10 kts | 298° |
| 2026-04-25 07:53 | -17.63173 | -63.14422 | 1232 ft | 4 kts | 99° |
| 2026-04-25 07:53 | -17.63189 | -63.14403 | 1232 ft | 0 kts | 142° |
| 2026-04-25 07:55 | -17.63338 | -63.14294 | 1232 ft | 62 kts | 148° |
| 2026-04-25 07:55 | -17.63865 | -63.13935 | 1232 ft | 124 kts | 147° |
| 2026-04-25 07:55 | -17.64604 | -63.13467 | 1488 ft | 137 kts | 148° |
| 2026-04-25 07:55 | -17.65442 | -63.12969 | 2158 ft | 137 kts | 146° |
| 2026-04-25 07:56 | -17.66282 | -63.12391 | 2617 ft | 152 kts | 142° |
| 2026-04-25 07:56 | -17.66941 | -63.11602 | 2931 ft | 165 kts | 109° |
| 2026-04-25 07:56 | -17.67045 | -63.10467 | 3363 ft | 172 kts | 71° |
| 2026-04-25 07:56 | -17.66380 | -63.09429 | 3922 ft | 174 kts | 32° |
| 2026-04-25 07:57 | -17.65264 | -63.09092 | 4530 ft | 175 kts | 354° |
| 2026-04-25 07:57 | -17.64285 | -63.09486 | 5092 ft | 177 kts | 321° |
| 2026-04-25 07:57 | -17.63604 | -63.10431 | 5718 ft | 180 kts | 296° |
| 2026-04-25 07:57 | -17.63267 | -63.11701 | 6385 ft | 183 kts | 281° |
| 2026-04-25 07:58 | -17.63176 | -63.13038 | 7029 ft | 186 kts | 274° |
| 2026-04-25 07:58 | -17.63223 | -63.14317 | 7601 ft | 189 kts | 270° |
| 2026-04-25 07:58 | -17.63346 | -63.15589 | 8153 ft | 193 kts | 267° |
| 2026-04-25 07:58 | -17.63552 | -63.16994 | 8744 ft | 196 kts | 265° |
| 2026-04-25 07:59 | -17.63816 | -63.18400 | 9310 ft | 199 kts | 263° |
| 2026-04-25 07:59 | -17.64091 | -63.19658 | 9797 ft | 203 kts | 262° |
| 2026-04-25 07:59 | -17.64430 | -63.21047 | 10324 ft | 206 kts | 261° |
| 2026-04-25 07:59 | -17.64804 | -63.22465 | 10840 ft | 209 kts | 259° |
| 2026-04-25 08:00 | -17.65196 | -63.23895 | 11339 ft | 211 kts | 259° |
| 2026-04-25 08:00 | -17.65578 | -63.25272 | 11807 ft | 213 kts | 259° |
| 2026-04-25 08:00 | -17.65949 | -63.26602 | 12259 ft | 214 kts | 258° |
| 2026-04-25 08:00 | -17.66363 | -63.28081 | 12757 ft | 214 kts | 258° |
| 2026-04-25 08:01 | -17.66747 | -63.29456 | 13177 ft | 216 kts | 258° |
| 2026-04-25 08:01 | -17.67084 | -63.30657 | 13507 ft | 219 kts | 257° |
| 2026-04-25 08:01 | -17.67432 | -63.31941 | 13714 ft | 227 kts | 256° |
| 2026-04-25 08:01 | -17.67816 | -63.33428 | 14066 ft | 230 kts | 256° |
| 2026-04-25 08:02 | -17.68263 | -63.35023 | 14564 ft | 227 kts | 255° |
| 2026-04-25 08:02 | -17.68709 | -63.36481 | 14997 ft | 226 kts | 255° |
| 2026-04-25 08:02 | -17.69150 | -63.37929 | 15359 ft | 228 kts | 255° |
| 2026-04-25 08:02 | -17.69595 | -63.39432 | 15700 ft | 230 kts | 255° |
| 2026-04-25 08:03 | -17.70058 | -63.41039 | 16053 ft | 232 kts | 256° |
| 2026-04-25 08:03 | -17.70494 | -63.42578 | 16385 ft | 234 kts | 255° |
| 2026-04-25 08:03 | -17.70914 | -63.44078 | 16701 ft | 236 kts | 255° |
| 2026-04-25 08:03 | -17.71356 | -63.45657 | 17025 ft | 238 kts | 255° |
| 2026-04-25 08:04 | -17.71818 | -63.47304 | 17355 ft | 240 kts | 255° |
| 2026-04-25 08:04 | -17.72258 | -63.48868 | 17661 ft | 241 kts | 255° |
| 2026-04-25 08:04 | -17.72711 | -63.50478 | 17972 ft | 242 kts | 255° |
| 2026-04-25 08:04 | -17.73168 | -63.52095 | 18281 ft | 244 kts | 254° |
| 2026-04-25 08:05 | -17.73634 | -63.53746 | 18600 ft | 244 kts | 254° |
| 2026-04-25 08:05 | -17.74097 | -63.55386 | 18911 ft | 245 kts | 254° |
| 2026-04-25 08:05 | -17.74530 | -63.56912 | 19194 ft | 246 kts | 253° |
| 2026-04-25 08:05 | -17.75012 | -63.58606 | 19498 ft | 248 kts | 253° |
| 2026-04-25 08:06 | -17.75485 | -63.60265 | 19790 ft | 249 kts | 253° |
| 2026-04-25 08:06 | -17.75951 | -63.61885 | 20078 ft | 249 kts | 253° |
| 2026-04-25 08:06 | -17.76407 | -63.63465 | 20358 ft | 250 kts | 253° |
| 2026-04-25 08:06 | -17.76842 | -63.64970 | 20615 ft | 250 kts | 254° |
| 2026-04-25 08:07 | -17.77337 | -63.66693 | 20895 ft | 251 kts | 254° |
| 2026-04-25 08:07 | -17.77798 | -63.68316 | 21145 ft | 253 kts | 255° |
| 2026-04-25 08:07 | -17.78253 | -63.69940 | 21387 ft | 254 kts | 255° |
| 2026-04-25 08:07 | -17.78511 | -63.71665 | 21610 ft | 253 kts | 271° |
| 2026-04-25 08:08 | -17.78277 | -63.73495 | 21872 ft | 251 kts | 286° |
| 2026-04-25 08:08 | -17.77808 | -63.75150 | 22117 ft | 252 kts | 289° |
| 2026-04-25 08:08 | -17.77330 | -63.76687 | 22333 ft | 253 kts | 290° |
| 2026-04-25 08:08 | -17.76811 | -63.78366 | 22568 ft | 253 kts | 290° |
| 2026-04-25 08:09 | -17.76291 | -63.80087 | 22809 ft | 253 kts | 289° |
| 2026-04-25 08:09 | -17.75782 | -63.81775 | 23031 ft | 254 kts | 290° |
| 2026-04-25 08:09 | -17.75316 | -63.83312 | 23220 ft | 254 kts | 290° |
| 2026-04-25 08:09 | -17.74816 | -63.84951 | 23415 ft | 255 kts | 290° |
| 2026-04-25 08:10 | -17.74280 | -63.86704 | 23618 ft | 255 kts | 290° |
| 2026-04-25 08:10 | -17.73771 | -63.88370 | 23771 ft | 257 kts | 290° |
| 2026-04-25 08:10 | -17.73270 | -63.90006 | 23874 ft | 260 kts | 290° |
| 2026-04-25 08:10 | -17.72744 | -63.91713 | 23937 ft | 264 kts | 291° |
| 2026-04-25 08:11 | -17.72172 | -63.93558 | 23975 ft | 270 kts | 291° |
| 2026-04-25 08:11 | -17.71615 | -63.95345 | 23988 ft | 275 kts | 291° |
| 2026-04-25 08:11 | -17.71096 | -63.97012 | 23993 ft | 280 kts | 291° |
| 2026-04-25 08:11 | -17.70554 | -63.98752 | 23995 ft | 284 kts | 291° |
| 2026-04-25 08:12 | -17.69939 | -64.00732 | 23996 ft | 289 kts | 291° |
| 2026-04-25 08:12 | -17.69331 | -64.02688 | 23996 ft | 293 kts | 291° |
| 2026-04-25 08:12 | -17.68779 | -64.04463 | 23996 ft | 296 kts | 291° |
| 2026-04-25 08:12 | -17.68188 | -64.06368 | 23996 ft | 299 kts | 291° |
| 2026-04-25 08:13 | -17.67555 | -64.08414 | 23995 ft | 302 kts | 290° |
| 2026-04-25 08:13 | -17.66928 | -64.10441 | 23995 ft | 305 kts | 290° |
| 2026-04-25 08:13 | -17.66382 | -64.12206 | 23995 ft | 307 kts | 290° |
| 2026-04-25 08:14 | -17.65140 | -64.16221 | 23995 ft | 311 kts | 290° |
| 2026-04-25 08:14 | -17.64516 | -64.18234 | 23994 ft | 313 kts | 290° |
| 2026-04-25 08:14 | -17.63909 | -64.20195 | 23994 ft | 314 kts | 290° |
| 2026-04-25 08:14 | -17.63327 | -64.22071 | 23994 ft | 315 kts | 290° |
| 2026-04-25 08:15 | -17.62668 | -64.24197 | 23994 ft | 316 kts | 290° |
| 2026-04-25 08:15 | -17.62017 | -64.26293 | 23994 ft | 317 kts | 290° |
| 2026-04-25 08:15 | -17.61393 | -64.28302 | 23994 ft | 318 kts | 290° |
| 2026-04-25 08:15 | -17.60782 | -64.30261 | 23994 ft | 319 kts | 290° |
| 2026-04-25 08:16 | -17.60163 | -64.32240 | 23994 ft | 320 kts | 290° |
| 2026-04-25 08:16 | -17.59580 | -64.34112 | 23994 ft | 320 kts | 291° |
| 2026-04-25 08:16 | -17.59025 | -64.35925 | 23994 ft | 320 kts | 290° |
| 2026-04-25 08:16 | -17.58457 | -64.37803 | 23994 ft | 320 kts | 290° |
| 2026-04-25 08:17 | -17.57810 | -64.39890 | 23993 ft | 321 kts | 291° |
| 2026-04-25 08:17 | -17.57122 | -64.42050 | 23993 ft | 321 kts | 291° |
| 2026-04-25 08:17 | -17.56460 | -64.44132 | 23994 ft | 321 kts | 291° |
| 2026-04-25 08:17 | -17.55817 | -64.46178 | 23994 ft | 322 kts | 290° |
| 2026-04-25 08:18 | -17.55134 | -64.48376 | 23994 ft | 322 kts | 290° |
| 2026-04-25 08:18 | -17.54446 | -64.50600 | 23994 ft | 322 kts | 290° |
| 2026-04-25 08:18 | -17.53804 | -64.52675 | 23994 ft | 323 kts | 290° |
| 2026-04-25 08:18 | -17.53256 | -64.54797 | 23992 ft | 324 kts | 283° |
| 2026-04-25 08:19 | -17.52993 | -64.57074 | 23994 ft | 326 kts | 276° |
| 2026-04-25 08:19 | -17.52892 | -64.59373 | 23994 ft | 327 kts | 275° |
| 2026-04-25 08:19 | -17.52805 | -64.61635 | 23994 ft | 327 kts | 275° |
| 2026-04-25 08:19 | -17.52698 | -64.63777 | 23994 ft | 326 kts | 276° |
| 2026-04-25 08:20 | -17.52555 | -64.66084 | 23994 ft | 326 kts | 276° |
| 2026-04-25 08:20 | -17.52397 | -64.68358 | 23994 ft | 326 kts | 277° |
| 2026-04-25 08:20 | -17.52240 | -64.70521 | 23994 ft | 327 kts | 277° |
| 2026-04-25 08:20 | -17.52088 | -64.72611 | 23994 ft | 327 kts | 277° |
| 2026-04-25 08:21 | -17.51924 | -64.74921 | 23994 ft | 327 kts | 276° |
| 2026-04-25 08:21 | -17.51759 | -64.77276 | 23994 ft | 327 kts | 276° |
| 2026-04-25 08:21 | -17.51606 | -64.79449 | 23994 ft | 327 kts | 276° |
| 2026-04-25 08:21 | -17.51456 | -64.81562 | 23994 ft | 327 kts | 276° |
| 2026-04-25 08:22 | -17.51296 | -64.83851 | 23994 ft | 327 kts | 276° |
| 2026-04-25 08:22 | -17.51135 | -64.86189 | 23994 ft | 327 kts | 276° |
| 2026-04-25 08:22 | -17.50989 | -64.88337 | 23994 ft | 327 kts | 276° |
| 2026-04-25 08:22 | -17.50846 | -64.90458 | 23994 ft | 327 kts | 276° |
| 2026-04-25 08:23 | -17.50692 | -64.92713 | 23994 ft | 327 kts | 276° |
| 2026-04-25 08:23 | -17.50530 | -64.95066 | 23994 ft | 327 kts | 276° |
| 2026-04-25 08:23 | -17.50375 | -64.97314 | 23993 ft | 327 kts | 276° |
| 2026-04-25 08:23 | -17.50220 | -64.99540 | 23993 ft | 327 kts | 276° |
| 2026-04-25 08:24 | -17.50068 | -65.01719 | 23993 ft | 327 kts | 276° |
| 2026-04-25 08:24 | -17.49903 | -65.04066 | 23993 ft | 327 kts | 276° |
| 2026-04-25 08:24 | -17.49796 | -65.05597 | 23994 ft | 327 kts | 276° |
| 2026-04-25 08:24 | -17.49641 | -65.07817 | 23993 ft | 327 kts | 276° |
| 2026-04-25 08:25 | -17.49485 | -65.10037 | 23993 ft | 327 kts | 276° |
| 2026-04-25 08:25 | -17.49323 | -65.12343 | 23993 ft | 327 kts | 276° |
| 2026-04-25 08:25 | -17.49163 | -65.14620 | 23993 ft | 327 kts | 276° |
| 2026-04-25 08:25 | -17.49018 | -65.16678 | 23993 ft | 327 kts | 276° |
| 2026-04-25 08:26 | -17.48871 | -65.18764 | 23994 ft | 327 kts | 276° |
| 2026-04-25 08:26 | -17.48708 | -65.21077 | 23994 ft | 327 kts | 276° |
| 2026-04-25 08:26 | -17.48545 | -65.23388 | 23993 ft | 327 kts | 276° |
| 2026-04-25 08:26 | -17.48383 | -65.25668 | 23994 ft | 327 kts | 276° |
| 2026-04-25 08:27 | -17.48229 | -65.27840 | 24029 ft | 325 kts | 276° |
| 2026-04-25 08:27 | -17.48073 | -65.30060 | 24173 ft | 321 kts | 276° |
| 2026-04-25 08:27 | -17.47912 | -65.32358 | 24245 ft | 320 kts | 276° |
| 2026-04-25 08:27 | -17.47760 | -65.34520 | 24290 ft | 320 kts | 276° |
| 2026-04-25 08:28 | -17.47618 | -65.36552 | 24306 ft | 321 kts | 276° |
| 2026-04-25 08:28 | -17.47462 | -65.38838 | 24314 ft | 321 kts | 276° |
| 2026-04-25 08:28 | -17.47311 | -65.41086 | 24317 ft | 322 kts | 276° |
| 2026-04-25 08:28 | -17.47165 | -65.43288 | 24319 ft | 323 kts | 276° |
| 2026-04-25 08:29 | -17.47028 | -65.45347 | 24319 ft | 323 kts | 276° |
| 2026-04-25 08:29 | -17.46877 | -65.47618 | 24320 ft | 324 kts | 276° |
| 2026-04-25 08:29 | -17.46722 | -65.49932 | 24320 ft | 324 kts | 276° |
| 2026-04-25 08:29 | -17.46573 | -65.52158 | 24320 ft | 325 kts | 276° |
| 2026-04-25 08:30 | -17.46438 | -65.54175 | 24320 ft | 325 kts | 276° |
| 2026-04-25 08:30 | -17.46291 | -65.56360 | 24320 ft | 326 kts | 276° |
| 2026-04-25 08:30 | -17.46134 | -65.58673 | 24320 ft | 326 kts | 276° |
| 2026-04-25 08:30 | -17.45992 | -65.60794 | 24320 ft | 326 kts | 276° |
| 2026-04-25 08:31 | -17.45861 | -65.62748 | 24320 ft | 326 kts | 276° |
| 2026-04-25 08:31 | -17.45734 | -65.64674 | 24319 ft | 327 kts | 276° |
| 2026-04-25 08:31 | -17.45577 | -65.66792 | 24317 ft | 328 kts | 275° |
| 2026-04-25 08:31 | -17.45370 | -65.68814 | 24320 ft | 330 kts | 275° |
| 2026-04-25 08:32 | -17.45177 | -65.71033 | 24320 ft | 331 kts | 274° |
| 2026-04-25 08:32 | -17.45112 | -65.73334 | 24322 ft | 332 kts | 273° |
| 2026-04-25 08:32 | -17.45068 | -65.75607 | 24321 ft | 332 kts | 274° |
| 2026-04-25 08:32 | -17.44978 | -65.77849 | 24321 ft | 332 kts | 275° |
| 2026-04-25 08:33 | -17.44839 | -65.80086 | 24320 ft | 331 kts | 277° |
| 2026-04-25 08:33 | -17.44653 | -65.82430 | 24320 ft | 331 kts | 277° |
| 2026-04-25 08:33 | -17.44458 | -65.84692 | 24320 ft | 331 kts | 278° |
| 2026-04-25 08:33 | -17.44268 | -65.86951 | 24320 ft | 331 kts | 277° |
| 2026-04-25 08:34 | -17.44096 | -65.89169 | 24320 ft | 331 kts | 277° |
| 2026-04-25 08:34 | -17.43934 | -65.91428 | 24320 ft | 331 kts | 277° |
| 2026-04-25 08:34 | -17.43778 | -65.93748 | 24320 ft | 331 kts | 276° |
| 2026-04-25 08:34 | -17.43629 | -65.95999 | 24320 ft | 331 kts | 276° |
| 2026-04-25 08:35 | -17.43487 | -65.98166 | 24320 ft | 331 kts | 276° |
| 2026-04-25 08:35 | -17.43337 | -66.00426 | 24320 ft | 331 kts | 276° |
| 2026-04-25 08:35 | -17.43179 | -66.02771 | 24320 ft | 331 kts | 277° |
| 2026-04-25 08:35 | -17.43022 | -66.05069 | 24320 ft | 331 kts | 277° |
| 2026-04-25 08:36 | -17.42872 | -66.07254 | 24320 ft | 331 kts | 277° |
| 2026-04-25 08:36 | -17.42719 | -66.09484 | 24320 ft | 331 kts | 277° |
| 2026-04-25 08:36 | -17.42559 | -66.11804 | 24320 ft | 331 kts | 277° |
| 2026-04-25 08:36 | -17.42407 | -66.14001 | 24320 ft | 331 kts | 277° |
| 2026-04-25 08:37 | -17.42256 | -66.16162 | 24319 ft | 331 kts | 277° |
| 2026-04-25 08:37 | -17.41924 | -66.18309 | 24318 ft | 328 kts | 287° |
| 2026-04-25 08:37 | -17.41190 | -66.20412 | 24321 ft | 325 kts | 297° |
| 2026-04-25 08:37 | -17.40267 | -66.22388 | 24320 ft | 325 kts | 300° |
| 2026-04-25 08:38 | -17.39344 | -66.24300 | 24320 ft | 325 kts | 299° |
| 2026-04-25 08:38 | -17.38392 | -66.26334 | 24320 ft | 325 kts | 298° |
| 2026-04-25 08:38 | -17.37463 | -66.28394 | 24320 ft | 326 kts | 297° |
| 2026-04-25 08:38 | -17.36580 | -66.30404 | 24320 ft | 326 kts | 297° |
| 2026-04-25 08:39 | -17.35722 | -66.32376 | 24320 ft | 326 kts | 297° |
| 2026-04-25 08:39 | -17.34871 | -66.34334 | 24320 ft | 326 kts | 297° |
| 2026-04-25 08:39 | -17.33963 | -66.36413 | 24320 ft | 326 kts | 297° |
| 2026-04-25 08:39 | -17.33058 | -66.38467 | 24320 ft | 326 kts | 297° |
| 2026-04-25 08:40 | -17.32172 | -66.40471 | 24320 ft | 327 kts | 297° |
| 2026-04-25 08:40 | -17.31287 | -66.42466 | 24320 ft | 327 kts | 297° |
| 2026-04-25 08:40 | -17.30384 | -66.44500 | 24320 ft | 327 kts | 297° |
| 2026-04-25 08:40 | -17.29450 | -66.46605 | 24320 ft | 327 kts | 297° |
| 2026-04-25 08:41 | -17.28558 | -66.48618 | 24320 ft | 327 kts | 297° |
| 2026-04-25 08:41 | -17.27657 | -66.50650 | 24320 ft | 327 kts | 297° |
| 2026-04-25 08:41 | -17.26733 | -66.52735 | 24320 ft | 327 kts | 297° |
| 2026-04-25 08:41 | -17.25814 | -66.54807 | 24320 ft | 327 kts | 297° |
| 2026-04-25 08:42 | -17.24953 | -66.56750 | 24320 ft | 327 kts | 297° |
| 2026-04-25 08:42 | -17.24101 | -66.58670 | 24320 ft | 327 kts | 297° |
| 2026-04-25 08:42 | -17.23174 | -66.60757 | 24320 ft | 327 kts | 297° |
| 2026-04-25 08:42 | -17.22272 | -66.62788 | 24320 ft | 327 kts | 297° |
| 2026-04-25 08:43 | -17.21405 | -66.64739 | 24320 ft | 328 kts | 297° |
| 2026-04-25 08:43 | -17.20544 | -66.66677 | 24320 ft | 328 kts | 297° |
| 2026-04-25 08:43 | -17.19622 | -66.68752 | 24320 ft | 328 kts | 297° |
| 2026-04-25 08:43 | -17.18692 | -66.70844 | 24320 ft | 328 kts | 297° |
| 2026-04-25 08:44 | -17.17803 | -66.72843 | 24320 ft | 328 kts | 297° |
| 2026-04-25 08:44 | -17.16929 | -66.74810 | 24320 ft | 328 kts | 297° |
| 2026-04-25 08:44 | -17.16016 | -66.76873 | 24320 ft | 328 kts | 297° |
| 2026-04-25 08:44 | -17.15118 | -66.78907 | 24320 ft | 328 kts | 297° |
| 2026-04-25 08:45 | -17.14297 | -66.80776 | 24320 ft | 328 kts | 297° |
| 2026-04-25 08:45 | -17.13505 | -66.82580 | 24320 ft | 328 kts | 297° |
| 2026-04-25 08:45 | -17.12595 | -66.84651 | 24320 ft | 329 kts | 297° |
| 2026-04-25 08:45 | -17.11664 | -66.86762 | 24320 ft | 329 kts | 297° |
| 2026-04-25 08:46 | -17.10850 | -66.88604 | 24320 ft | 329 kts | 297° |
| 2026-04-25 08:46 | -17.10088 | -66.90329 | 24320 ft | 329 kts | 297° |
| 2026-04-25 08:46 | -17.09342 | -66.92009 | 24316 ft | 329 kts | 296° |
| 2026-04-25 08:46 | -17.08507 | -66.93807 | 24318 ft | 331 kts | 296° |
| 2026-04-25 08:47 | -17.07636 | -66.95628 | 24320 ft | 332 kts | 297° |
| 2026-04-25 08:47 | -17.06713 | -66.97763 | 24322 ft | 334 kts | 295° |
| 2026-04-25 08:47 | -17.05899 | -66.99788 | 24322 ft | 334 kts | 295° |
| 2026-04-25 08:47 | -17.05051 | -67.01855 | 24321 ft | 333 kts | 296° |
| 2026-04-25 08:48 | -17.04194 | -67.03851 | 24320 ft | 333 kts | 297° |
| 2026-04-25 08:48 | -17.03271 | -67.05917 | 24320 ft | 332 kts | 298° |
| 2026-04-25 08:48 | -17.02337 | -67.07964 | 24320 ft | 332 kts | 298° |
| 2026-04-25 08:48 | -17.01386 | -67.10047 | 24320 ft | 331 kts | 298° |
| 2026-04-25 08:49 | -17.00483 | -67.12048 | 24320 ft | 331 kts | 298° |
| 2026-04-25 08:49 | -16.99537 | -67.14171 | 24320 ft | 331 kts | 297° |
| 2026-04-25 08:49 | -16.98645 | -67.16185 | 24320 ft | 331 kts | 297° |
| 2026-04-25 08:49 | -16.97748 | -67.18216 | 24320 ft | 331 kts | 297° |
| 2026-04-25 08:50 | -16.96865 | -67.20213 | 24320 ft | 330 kts | 297° |
| 2026-04-25 08:50 | -16.95962 | -67.22253 | 24320 ft | 330 kts | 297° |
| 2026-04-25 08:50 | -16.95078 | -67.24248 | 24320 ft | 330 kts | 297° |
| 2026-04-25 08:50 | -16.94175 | -67.26282 | 24320 ft | 330 kts | 297° |
| 2026-04-25 08:51 | -16.93314 | -67.28222 | 24320 ft | 330 kts | 297° |
| 2026-04-25 08:51 | -16.92457 | -67.30142 | 24320 ft | 330 kts | 297° |
| 2026-04-25 08:51 | -16.91552 | -67.32159 | 24320 ft | 330 kts | 297° |
| 2026-04-25 08:51 | -16.90619 | -67.34246 | 24320 ft | 330 kts | 297° |
| 2026-04-25 08:52 | -16.89730 | -67.36247 | 24330 ft | 329 kts | 297° |
| 2026-04-25 08:52 | -16.88843 | -67.38257 | 24474 ft | 325 kts | 297° |
| 2026-04-25 08:52 | -16.87947 | -67.40297 | 24554 ft | 323 kts | 297° |
| 2026-04-25 08:52 | -16.87117 | -67.42193 | 24604 ft | 323 kts | 297° |
| 2026-04-25 08:53 | -16.86268 | -67.44129 | 24626 ft | 323 kts | 297° |
| 2026-04-25 08:53 | -16.85437 | -67.46021 | 24636 ft | 324 kts | 297° |
| 2026-04-25 08:53 | -16.84575 | -67.47980 | 24640 ft | 324 kts | 297° |
| 2026-04-25 08:53 | -16.83706 | -67.49951 | 24642 ft | 325 kts | 297° |
| 2026-04-25 08:54 | -16.82833 | -67.51930 | 24642 ft | 326 kts | 297° |
| 2026-04-25 08:54 | -16.81955 | -67.53921 | 24643 ft | 327 kts | 297° |
| 2026-04-25 08:54 | -16.81064 | -67.55941 | 24643 ft | 327 kts | 297° |
| 2026-04-25 08:54 | -16.80163 | -67.57984 | 24643 ft | 328 kts | 297° |
| 2026-04-25 08:55 | -16.79293 | -67.59956 | 24643 ft | 328 kts | 297° |
| 2026-04-25 08:55 | -16.78402 | -67.61977 | 24643 ft | 329 kts | 297° |
| 2026-04-25 08:55 | -16.77513 | -67.63992 | 24643 ft | 329 kts | 297° |
| 2026-04-25 08:55 | -16.76639 | -67.65975 | 24643 ft | 329 kts | 297° |
| 2026-04-25 08:56 | -16.75769 | -67.67945 | 24643 ft | 330 kts | 297° |
| 2026-04-25 08:56 | -16.74932 | -67.69840 | 24643 ft | 330 kts | 297° |
| 2026-04-25 08:56 | -16.74312 | -67.71245 | 24643 ft | 330 kts | 297° |
| 2026-04-25 08:56 | -16.73118 | -67.73950 | 24643 ft | 330 kts | 297° |
| 2026-04-25 08:57 | -16.72528 | -67.75292 | 24643 ft | 330 kts | 297° |
| 2026-04-25 08:57 | -16.71665 | -67.77251 | 24643 ft | 331 kts | 297° |
| 2026-04-25 08:57 | -16.70761 | -67.79299 | 24643 ft | 331 kts | 297° |
| 2026-04-25 08:57 | -16.69893 | -67.81264 | 24643 ft | 331 kts | 297° |
| 2026-04-25 08:58 | -16.69035 | -67.83205 | 24643 ft | 331 kts | 297° |
| 2026-04-25 08:58 | -16.68132 | -67.85243 | 24640 ft | 331 kts | 297° |
| 2026-04-25 08:58 | -16.67226 | -67.87289 | 24645 ft | 329 kts | 297° |
| 2026-04-25 08:58 | -16.66315 | -67.89343 | 24644 ft | 329 kts | 297° |
| 2026-04-25 08:59 | -16.65398 | -67.91407 | 24643 ft | 330 kts | 297° |
| 2026-04-25 08:59 | -16.64502 | -67.93427 | 24643 ft | 330 kts | 297° |
| 2026-04-25 08:59 | -16.63568 | -67.95531 | 24635 ft | 324 kts | 298° |
| 2026-04-25 08:59 | -16.62686 | -67.97527 | 24639 ft | 318 kts | 298° |
| 2026-04-25 09:00 | -16.61812 | -67.99501 | 24539 ft | 315 kts | 298° |
| 2026-04-25 09:00 | -16.60942 | -68.01450 | 24121 ft | 317 kts | 298° |
| 2026-04-25 09:00 | -16.60077 | -68.03387 | 23707 ft | 319 kts | 298° |
| 2026-04-25 09:00 | -16.59191 | -68.05366 | 23284 ft | 321 kts | 298° |
| 2026-04-25 09:01 | -16.58316 | -68.07319 | 22866 ft | 323 kts | 297° |
| 2026-04-25 09:01 | -16.57570 | -68.08985 | 22507 ft | 323 kts | 297° |
| 2026-04-25 09:01 | -16.56778 | -68.10758 | 22130 ft | 322 kts | 296° |
| 2026-04-25 09:01 | -16.55931 | -68.12605 | 21729 ft | 320 kts | 297° |
| 2026-04-25 09:02 | -16.55109 | -68.14473 | 21327 ft | 318 kts | 296° |
| 2026-04-25 09:02 | -16.54287 | -68.16384 | 20827 ft | 318 kts | 296° |
| 2026-04-25 09:02 | -16.53420 | -68.18363 | 20259 ft | 319 kts | 296° |
| 2026-04-25 09:02 | -16.52527 | -68.20358 | 19637 ft | 318 kts | 297° |
| 2026-04-25 09:03 | -16.51655 | -68.22291 | 19028 ft | 315 kts | 296° |
| 2026-04-25 09:03 | -16.50832 | -68.24126 | 18569 ft | 307 kts | 296° |
| 2026-04-25 09:03 | -16.50000 | -68.25990 | 18171 ft | 297 kts | 296° |
| 2026-04-25 09:03 | -16.49197 | -68.27789 | 17789 ft | 287 kts | 296° |
| 2026-04-25 09:04 | -16.48430 | -68.29503 | 17479 ft | 274 kts | 296° |
| 2026-04-25 09:04 | -16.48028 | -68.30398 | 17274 ft | 269 kts | 296° |
| 2026-04-25 09:05 | -16.48027 | -68.30401 | 17273 ft | 269 kts | 296° |
| 2026-04-25 09:05 | -16.47352 | -68.31895 | 16940 ft | 258 kts | 296° |
| 2026-04-25 09:05 | -16.46643 | -68.33464 | 16591 ft | 240 kts | 296° |
| 2026-04-25 09:06 | -16.45988 | -68.34912 | 16244 ft | 227 kts | 296° |
| 2026-04-25 09:06 | -16.45364 | -68.36256 | 15936 ft | 229 kts | 297° |
| 2026-04-25 09:06 | -16.44744 | -68.37577 | 15643 ft | 230 kts | 295° |
| 2026-04-25 09:06 | -16.44484 | -68.39140 | 15277 ft | 232 kts | 265° |
| 2026-04-25 09:07 | -16.45000 | -68.40577 | 15079 ft | 222 kts | 233° |
| 2026-04-25 09:07 | -16.46060 | -68.41459 | 15016 ft | 207 kts | 201° |
| 2026-04-25 09:07 | -16.47366 | -68.41586 | 15028 ft | 194 kts | 167° |
| 2026-04-25 09:07 | -16.48450 | -68.40973 | 15017 ft | 188 kts | 137° |
| 2026-04-25 09:08 | -16.49239 | -68.39949 | 15001 ft | 186 kts | 118° |
| 2026-04-25 09:08 | -16.49706 | -68.38759 | 14994 ft | 183 kts | 106° |
| 2026-04-25 09:08 | -16.50010 | -68.37563 | 14991 ft | 180 kts | 102° |
| 2026-04-25 09:08 | -16.50281 | -68.36299 | 14989 ft | 177 kts | 101° |
| 2026-04-25 09:09 | -16.50500 | -68.35088 | 14988 ft | 174 kts | 98° |
| 2026-04-25 09:09 | -16.50663 | -68.33943 | 14987 ft | 171 kts | 96° |
| 2026-04-25 09:09 | -16.50801 | -68.32722 | 14978 ft | 172 kts | 95° |
| 2026-04-25 09:09 | -16.50908 | -68.31474 | 14843 ft | 174 kts | 94° |
| 2026-04-25 09:10 | -16.50982 | -68.30267 | 14707 ft | 169 kts | 92° |
| 2026-04-25 09:10 | -16.51034 | -68.29088 | 14508 ft | 163 kts | 92° |
| 2026-04-25 09:10 | -16.51071 | -68.28006 | 14350 ft | 160 kts | 92° |
| 2026-04-25 09:10 | -16.51105 | -68.26878 | 14188 ft | 159 kts | 91° |
| 2026-04-25 09:11 | -16.51168 | -68.24648 | 13862 ft | 164 kts | 91° |
| 2026-04-25 09:11 | -16.51203 | -68.23517 | 13696 ft | 164 kts | 91° |
| 2026-04-25 09:11 | -16.51246 | -68.22356 | 13524 ft | 163 kts | 91° |
| 2026-04-25 09:12 | -16.51274 | -68.21242 | 13387 ft | 159 kts | 90° |
| 2026-04-25 09:12 | -16.51298 | -68.20207 | 13321 ft | 135 kts | 92° |
| 2026-04-25 09:12 | -16.51318 | -68.19642 | 13321 ft | 38 kts | 91° |
| 2026-04-25 09:12 | -16.51327 | -68.19440 | 13321 ft | 20 kts | 94° |
| 2026-04-25 09:13 | -16.51332 | -68.19321 | 13321 ft | 18 kts | 92° |
| 2026-04-25 09:13 | -16.51336 | -68.19183 | 13321 ft | 22 kts | 92° |
| 2026-04-25 09:13 | -16.51342 | -68.19027 | 13321 ft | 25 kts | 92° |
| 2026-04-25 09:13 | -16.51349 | -68.18849 | 13321 ft | 27 kts | 86° |
| 2026-04-25 09:14 | -16.51352 | -68.18654 | 13321 ft | 29 kts | 91° |
| 2026-04-25 09:14 | -16.51359 | -68.18449 | 13321 ft | 29 kts | 92° |
| 2026-04-25 09:14 | -16.51336 | -68.18320 | 13321 ft | 13 kts | 46° |
| 2026-04-25 09:14 | -16.51272 | -68.18241 | 13321 ft | 17 kts | 50° |
| 2026-04-25 09:15 | -16.51197 | -68.18142 | 13321 ft | 21 kts | 52° |
| 2026-04-25 09:15 | -16.51109 | -68.18025 | 13321 ft | 21 kts | 52° |
| 2026-04-25 09:15 | -16.51059 | -68.17934 | 13321 ft | 14 kts | 85° |
| 2026-04-25 09:15 | -16.51058 | -68.17844 | 13321 ft | 11 kts | 94° |
| 2026-04-25 09:16 | -16.51061 | -68.17772 | 13321 ft | 10 kts | 88° |
| 2026-04-25 09:16 | -16.51021 | -68.17744 | 13321 ft | 5 kts | 2° |
| 2026-04-25 09:16 | -16.50994 | -68.17744 | 13321 ft | 3 kts | 2° |
| 2026-04-25 09:16 | -16.50999 | -68.17744 | 13321 ft | 4 kts | 2° |
| 2026-04-25 09:17 | -16.51005 | -68.17744 | 13321 ft | 0 kts | 2° |